createdAt,value
2022-11-29T00:01:31.635Z,5.40
2022-11-29T00:03:59.179Z,5.40
2022-11-29T00:06:28.311Z,5.50
2022-11-29T00:08:56.827Z,5.40
2022-11-29T00:11:45.707Z,5.50
2022-11-29T00:14:16.415Z,5.40
2022-11-29T00:16:43.831Z,5.50
2022-11-29T00:19:12.099Z,5.40
2022-11-29T00:21:38.769Z,5.40
2022-11-29T00:24:05.711Z,5.40
2022-11-29T00:26:32.303Z,5.40
2022-11-29T00:28:59.023Z,5.40
2022-11-29T00:31:30.248Z,5.40
2022-11-29T00:33:57.724Z,5.40
2022-11-29T00:36:24.985Z,5.40
2022-11-29T00:38:51.599Z,5.30
2022-11-29T00:41:18.700Z,5.40
2022-11-29T00:43:45.320Z,5.40
2022-11-29T00:46:12.696Z,5.40
2022-11-29T00:48:39.519Z,5.40
2022-11-29T00:51:06.830Z,5.40
2022-11-29T00:53:34.756Z,5.40
2022-11-29T00:56:01.705Z,5.40
2022-11-29T00:58:28.674Z,5.40
2022-11-29T01:00:56.382Z,5.30
2022-11-29T01:03:23.551Z,5.40
2022-11-29T01:05:51.127Z,5.40
2022-11-29T01:08:18.570Z,5.40
2022-11-29T01:10:45.146Z,5.40
2022-11-29T01:13:11.999Z,5.40
2022-11-29T01:15:38.593Z,5.40
2022-11-29T01:18:05.612Z,5.40
2022-11-29T01:20:32.234Z,5.40
2022-11-29T01:22:58.844Z,5.40
2022-11-29T01:25:25.527Z,5.40
2022-11-29T01:27:52.187Z,5.40
2022-11-29T01:30:19.586Z,5.30
2022-11-29T01:32:46.165Z,5.30
2022-11-29T01:35:12.840Z,5.30
2022-11-29T01:37:39.428Z,5.40
2022-11-29T01:40:06.850Z,5.40
2022-11-29T01:42:33.443Z,5.40
2022-11-29T01:45:04.541Z,5.40
2022-11-29T01:47:32.046Z,5.40
2022-11-29T01:49:59.686Z,5.40
2022-11-29T01:52:30.487Z,5.40
2022-11-29T01:55:01.653Z,5.40
2022-11-29T01:57:29.242Z,5.40
2022-11-29T02:00:02.204Z,5.40
2022-11-29T02:02:37.080Z,5.40
2022-11-29T02:05:04.908Z,5.40
2022-11-29T02:07:31.925Z,5.40
2022-11-29T02:09:58.825Z,5.40
2022-11-29T02:12:50.597Z,5.40
2022-11-29T02:15:46.012Z,5.40
2022-11-29T02:18:25.915Z,5.40
2022-11-29T02:21:02.602Z,5.40
2022-11-29T02:24:03.380Z,5.40
2022-11-29T02:26:58.902Z,5.50
2022-11-29T02:30:07.614Z,5.40
2022-11-29T02:33:09.576Z,5.40
2022-11-29T02:35:39.402Z,5.40
2022-11-29T02:38:34.058Z,5.40
2022-11-29T02:41:15.697Z,5.40
2022-11-29T02:44:00.988Z,5.40
2022-11-29T02:46:45.965Z,5.40
2022-11-29T02:49:19.941Z,5.40
2022-11-29T02:51:59.137Z,5.40
2022-11-29T02:54:38.477Z,5.40
2022-11-29T02:57:40.249Z,5.40
2022-11-29T03:00:17.809Z,5.30
2022-11-29T03:03:06.239Z,5.30
2022-11-29T03:05:45.253Z,5.30
2022-11-29T03:08:32.922Z,5.30
2022-11-29T03:11:33.606Z,5.30
2022-11-29T03:14:26.594Z,5.30
2022-11-29T03:17:00.750Z,5.30
2022-11-29T03:20:19.895Z,5.30
2022-11-29T03:23:04.947Z,5.30
2022-11-29T03:25:42.218Z,5.40
2022-11-29T03:28:29.469Z,5.40
2022-11-29T03:31:00.910Z,5.40
2022-11-29T03:34:05.357Z,5.40
2022-11-29T03:37:03.447Z,5.40
2022-11-29T03:39:57.350Z,5.40
2022-11-29T03:42:30.264Z,5.40
2022-11-29T03:45:10.762Z,5.40
2022-11-29T03:47:49.068Z,5.40
2022-11-29T03:50:22.031Z,5.40
2022-11-29T03:53:01.636Z,5.40
2022-11-29T03:55:46.220Z,5.40
2022-11-29T03:58:50.271Z,5.40
2022-11-29T04:01:50.595Z,5.40
2022-11-29T04:04:29.155Z,5.40
2022-11-29T04:07:13.923Z,5.40
2022-11-29T04:10:16.970Z,5.40
2022-11-29T04:13:00.891Z,5.40
2022-11-29T04:16:19.416Z,5.40
2022-11-29T04:18:58.747Z,5.40
2022-11-29T04:21:31.075Z,5.40
2022-11-29T04:24:14.181Z,5.40
2022-11-29T04:27:07.056Z,5.40
2022-11-29T04:29:52.477Z,5.40
2022-11-29T04:32:50.160Z,5.40
2022-11-29T04:35:27.517Z,5.50
2022-11-29T04:38:31.565Z,5.40
2022-11-29T04:41:20.326Z,5.40
2022-11-29T04:44:01.745Z,5.40
2022-11-29T04:46:46.997Z,5.40
2022-11-29T04:49:44.401Z,5.40
2022-11-29T04:52:52.902Z,5.40
2022-11-29T04:55:54.287Z,5.40
2022-11-29T04:58:43.712Z,5.40
2022-11-29T05:01:19.623Z,5.40
2022-11-29T05:04:00.805Z,5.40
2022-11-29T05:06:55.180Z,5.50
2022-11-29T05:09:34.761Z,5.50
2022-11-29T05:12:31.353Z,5.40
2022-11-29T05:15:00.933Z,5.40
2022-11-29T05:18:18.604Z,5.40
2022-11-29T05:21:04.019Z,5.40
2022-11-29T05:24:11.315Z,5.40
2022-11-29T05:26:55.084Z,5.40
2022-11-29T05:29:35.146Z,5.40
2022-11-29T05:32:17.518Z,5.40
2022-11-29T05:34:52.802Z,5.40
2022-11-29T05:37:44.419Z,5.40
2022-11-29T05:40:16.497Z,5.40
2022-11-29T05:43:20.778Z,5.40
2022-11-29T05:45:57.574Z,5.40
2022-11-29T05:48:27.288Z,5.40
2022-11-29T05:51:22.046Z,5.40
2022-11-29T05:54:30.209Z,5.50
2022-11-29T05:57:06.382Z,5.60
2022-11-29T05:59:36.737Z,5.60
2022-11-29T06:02:38.183Z,5.70
2022-11-29T06:05:16.975Z,5.60
2022-11-29T06:07:48.236Z,5.60
2022-11-29T06:10:18.198Z,5.50
2022-11-29T06:13:08.160Z,5.50
2022-11-29T06:16:18.691Z,5.50
2022-11-29T06:19:05.717Z,5.50
2022-11-29T06:21:40.632Z,5.50
2022-11-29T06:24:29.100Z,5.50
2022-11-29T06:27:18.988Z,5.50
2022-11-29T06:29:45.620Z,5.40
2022-11-29T06:32:18.813Z,5.40
2022-11-29T06:35:00.622Z,5.40
2022-11-29T06:37:38.788Z,5.50
2022-11-29T06:40:09.717Z,5.40
2022-11-29T06:42:36.305Z,5.40
2022-11-29T06:45:03.784Z,6.20
2022-11-29T06:47:49.550Z,6.50
2022-11-29T06:51:06.037Z,6.80
2022-11-29T06:53:48.987Z,6.80
2022-11-29T06:56:15.534Z,6.40
2022-11-29T06:58:57.983Z,6.00
2022-11-29T07:01:37.413Z,5.80
2022-11-29T07:04:52.650Z,5.70
2022-11-29T07:07:21.422Z,5.60
2022-11-29T07:09:51.358Z,5.60
2022-11-29T07:12:18.712Z,5.50
2022-11-29T07:14:45.921Z,5.50
2022-11-29T07:17:25.608Z,5.40
2022-11-29T07:20:08.225Z,5.40
2022-11-29T07:23:10.225Z,5.40
2022-11-29T07:25:54.911Z,5.40
2022-11-29T07:28:45.447Z,5.40
2022-11-29T07:31:54.357Z,5.40
2022-11-29T07:34:52.409Z,5.40
2022-11-29T07:37:33.859Z,5.40
2022-11-29T07:40:03.302Z,5.40
2022-11-29T07:43:08.741Z,5.40
2022-11-29T07:45:36.722Z,5.30
2022-11-29T07:48:04.066Z,5.30
2022-11-29T07:50:31.533Z,5.30
2022-11-29T07:52:59.187Z,5.30
2022-11-29T07:55:26.592Z,5.30
2022-11-29T07:57:53.751Z,5.30
2022-11-29T08:00:21.393Z,5.30
2022-11-29T08:02:49.115Z,5.30
2022-11-29T08:05:16.289Z,5.30
2022-11-29T08:07:43.168Z,5.30
2022-11-29T08:10:13.138Z,5.20
2022-11-29T08:12:49.901Z,5.30
2022-11-29T08:15:18.498Z,5.30
2022-11-29T08:17:45.185Z,5.30
2022-11-29T08:20:13.347Z,5.30
2022-11-29T08:22:39.998Z,5.40
2022-11-29T08:25:07.616Z,5.30
2022-11-29T08:27:35.122Z,5.30
2022-11-29T08:30:01.997Z,5.30
2022-11-29T08:32:28.780Z,5.30
2022-11-29T08:34:55.389Z,5.30
2022-11-29T08:37:22.026Z,5.30
2022-11-29T08:39:48.664Z,5.30
2022-11-29T08:42:15.237Z,5.30
2022-11-29T08:44:41.885Z,5.30
2022-11-29T08:47:28.893Z,5.30
2022-11-29T08:50:01.582Z,5.30
2022-11-29T08:52:47.347Z,5.40
2022-11-29T08:55:14.299Z,5.40
2022-11-29T08:57:41.481Z,5.40
2022-11-29T09:00:09.454Z,5.40
2022-11-29T09:02:37.216Z,5.40
2022-11-29T09:05:05.640Z,5.40
2022-11-29T09:07:32.598Z,5.50
2022-11-29T09:10:04.764Z,5.50
2022-11-29T09:12:32.698Z,5.50
2022-11-29T09:14:59.523Z,5.60
2022-11-29T09:17:26.599Z,5.60
2022-11-29T09:19:53.180Z,5.60
2022-11-29T09:22:19.783Z,5.60
2022-11-29T09:24:47.178Z,5.60
2022-11-29T09:27:14.058Z,5.60
2022-11-29T09:29:40.616Z,5.60
2022-11-29T09:32:07.458Z,5.60
2022-11-29T09:34:34.113Z,5.60
2022-11-29T09:37:00.806Z,5.60
2022-11-29T09:39:27.468Z,5.60
2022-11-29T09:42:27.073Z,5.70
2022-11-29T09:45:07.961Z,5.70
2022-11-29T09:47:50.972Z,5.80
2022-11-29T09:50:35.800Z,5.80
2022-11-29T09:53:39.870Z,5.70
2022-11-29T09:56:32.898Z,5.70
2022-11-29T09:59:04.663Z,5.70
2022-11-29T10:01:42.914Z,5.80
2022-11-29T10:04:16.954Z,5.80
2022-11-29T10:06:58.856Z,5.80
2022-11-29T10:09:44.682Z,5.80
2022-11-29T10:12:20.134Z,5.80
2022-11-29T10:14:59.024Z,5.80
2022-11-29T10:17:32.936Z,5.80
2022-11-29T10:20:04.213Z,5.90
2022-11-29T10:22:40.742Z,5.80
2022-11-29T10:25:10.350Z,5.90
2022-11-29T10:27:40.429Z,6.00
2022-11-29T10:30:13.948Z,6.00
2022-11-29T10:32:42.058Z,6.10
2022-11-29T10:35:15.234Z,6.00
2022-11-29T10:37:41.989Z,6.00
2022-11-29T10:40:35.771Z,5.90
2022-11-29T10:43:03.450Z,6.00
2022-11-29T10:45:34.016Z,6.00
2022-11-29T10:48:08.015Z,6.00
2022-11-29T10:50:36.268Z,6.10
2022-11-29T10:53:27.277Z,6.10
2022-11-29T10:56:01.573Z,6.10
2022-11-29T10:58:31.222Z,6.10
2022-11-29T11:01:02.206Z,6.10
2022-11-29T11:03:40.945Z,6.10
2022-11-29T11:06:24.075Z,6.10
2022-11-29T11:09:12.077Z,6.20
2022-11-29T11:11:39.650Z,6.20
2022-11-29T11:14:39.926Z,6.20
2022-11-29T11:17:29.992Z,6.30
2022-11-29T11:20:08.234Z,6.30
2022-11-29T11:22:39.689Z,6.30
2022-11-29T11:25:30.959Z,6.30
2022-11-29T11:28:10.530Z,6.40
2022-11-29T11:30:37.303Z,6.40
2022-11-29T11:33:06.619Z,6.60
2022-11-29T11:35:33.328Z,6.50
2022-11-29T11:37:59.928Z,6.50
2022-11-29T11:40:29.310Z,6.50
2022-11-29T11:42:59.168Z,6.40
2022-11-29T11:45:36.624Z,6.40
2022-11-29T11:48:12.291Z,6.40
2022-11-29T11:50:44.749Z,6.40
2022-11-29T11:53:28.888Z,6.40
2022-11-29T11:56:00.097Z,6.40
2022-11-29T11:58:37.344Z,6.50
2022-11-29T12:01:12.877Z,6.50
2022-11-29T12:03:45.706Z,6.50
2022-11-29T12:06:41.115Z,6.50
2022-11-29T12:09:36.022Z,6.60
2022-11-29T12:12:27.785Z,6.50
2022-11-29T12:15:20.354Z,6.60
2022-11-29T12:17:49.655Z,6.60
2022-11-29T12:20:22.800Z,6.60
2022-11-29T12:23:11.314Z,6.60
2022-11-29T12:25:50.959Z,6.50
2022-11-29T12:28:20.765Z,6.50
2022-11-29T12:31:25.170Z,6.50
2022-11-29T12:34:09.944Z,6.50
2022-11-29T12:37:18.321Z,6.50
2022-11-29T12:39:56.966Z,6.50
2022-11-29T12:42:36.173Z,6.50
2022-11-29T12:45:29.774Z,6.60
2022-11-29T12:48:18.011Z,6.60
2022-11-29T12:51:13.852Z,6.60
2022-11-29T12:54:08.135Z,6.60
2022-11-29T12:56:43.721Z,6.60
2022-11-29T12:59:29.945Z,6.50
2022-11-29T13:02:13.732Z,6.40
2022-11-29T13:05:01.722Z,6.40
2022-11-29T13:07:46.343Z,6.40
2022-11-29T13:10:31.564Z,6.40
2022-11-29T13:13:05.057Z,6.40
2022-11-29T13:15:38.381Z,6.40
2022-11-29T13:18:17.014Z,6.40
2022-11-29T13:21:04.627Z,6.40
2022-11-29T13:26:36.660Z,6.30
2022-11-29T13:29:04.087Z,6.30
2022-11-29T13:31:31.384Z,6.30
2022-11-29T13:34:23.590Z,6.30
2022-11-29T13:37:02.972Z,6.30
2022-11-29T13:40:07.298Z,6.30
2022-11-29T13:42:53.321Z,6.20
2022-11-29T13:45:25.973Z,6.20
2022-11-29T13:48:24.962Z,6.20
2022-11-29T13:50:58.591Z,6.20
2022-11-29T13:53:46.858Z,6.20
2022-11-29T13:56:29.676Z,6.20
2022-11-29T13:58:58.593Z,6.20
2022-11-29T14:01:26.655Z,6.20
2022-11-29T14:04:23.666Z,6.20
2022-11-29T14:07:00.917Z,6.20
2022-11-29T14:09:55.667Z,6.20
2022-11-29T14:12:31.068Z,6.10
2022-11-29T14:15:04.909Z,6.10
2022-11-29T14:17:33.873Z,6.10
2022-11-29T14:20:22.271Z,6.00
2022-11-29T14:23:04.250Z,6.00
2022-11-29T14:25:56.596Z,6.00
2022-11-29T14:28:23.124Z,6.00
2022-11-29T14:30:54.491Z,6.00
2022-11-29T14:33:31.772Z,6.00
2022-11-29T14:36:12.430Z,5.90
2022-11-29T14:38:51.838Z,6.00
2022-11-29T14:41:51.112Z,5.90
2022-11-29T14:44:21.835Z,5.80
2022-11-29T14:46:59.113Z,5.80
2022-11-29T14:49:28.075Z,5.80
2022-11-29T14:52:08.595Z,5.80
2022-11-29T14:54:36.986Z,5.80
2022-11-29T14:57:41.387Z,5.80
2022-11-29T15:00:12.594Z,5.80
2022-11-29T15:02:50.148Z,5.70
2022-11-29T15:05:27.538Z,5.70
2022-11-29T15:08:18.809Z,5.70
2022-11-29T15:10:51.694Z,5.70
2022-11-29T15:13:41.419Z,5.70
2022-11-29T15:16:55.507Z,5.60
2022-11-29T15:19:52.007Z,5.60
2022-11-29T15:22:20.785Z,5.50
2022-11-29T15:25:18.354Z,5.40
2022-11-29T15:27:51.817Z,5.40
2022-11-29T15:30:20.510Z,5.40
2022-11-29T15:32:47.416Z,5.40
2022-11-29T15:35:19.014Z,5.40
2022-11-29T15:37:46.932Z,5.30
2022-11-29T15:40:17.267Z,5.40
2022-11-29T15:42:49.875Z,5.30
2022-11-29T15:45:37.330Z,5.30
2022-11-29T15:48:22.735Z,5.30
2022-11-29T15:51:16.412Z,5.30
2022-11-29T15:54:13.223Z,5.30
2022-11-29T15:56:43.700Z,5.50
2022-11-29T15:59:26.886Z,5.50
2022-11-29T16:01:56.111Z,5.40
2022-11-29T16:04:24.349Z,5.30
2022-11-29T16:06:51.834Z,5.30
2022-11-29T16:09:22.663Z,5.30
2022-11-29T16:11:49.559Z,5.30
2022-11-29T16:14:25.038Z,5.30
2022-11-29T16:16:54.440Z,5.20
2022-11-29T16:19:36.960Z,5.20
2022-11-29T16:22:12.652Z,5.10
2022-11-29T16:25:01.379Z,5.30
2022-11-29T16:27:35.003Z,5.30
2022-11-29T16:30:02.434Z,5.20
2022-11-29T16:32:42.854Z,5.20
2022-11-29T16:35:18.506Z,5.10
2022-11-29T16:37:46.427Z,5.10
2022-11-29T16:40:29.127Z,5.10
2022-11-29T16:43:04.635Z,5.20
2022-11-29T16:45:35.219Z,5.10
2022-11-29T16:48:02.905Z,5.00
2022-11-29T16:50:31.105Z,4.90
2022-11-29T16:53:32.706Z,4.90
2022-11-29T16:55:59.379Z,4.90
2022-11-29T16:58:26.601Z,4.80
2022-11-29T17:00:53.747Z,4.80
2022-11-29T17:03:20.368Z,4.80
2022-11-29T17:05:47.009Z,4.80
2022-11-29T17:08:13.606Z,4.80
2022-11-29T17:10:40.220Z,4.70
2022-11-29T17:13:10.989Z,4.70
2022-11-29T17:15:37.716Z,4.70
2022-11-29T17:18:04.404Z,4.70
2022-11-29T17:20:31.076Z,4.70
2022-11-29T17:22:57.997Z,4.60
2022-11-29T17:25:24.647Z,4.60
2022-11-29T17:27:51.331Z,4.60
2022-11-29T17:30:18.117Z,4.60
2022-11-29T17:32:44.743Z,4.50
2022-11-29T17:35:11.399Z,4.50
2022-11-29T17:37:37.976Z,4.50
2022-11-29T17:40:05.014Z,4.50
2022-11-29T17:42:31.658Z,4.50
2022-11-29T17:44:58.230Z,4.40
2022-11-29T17:47:24.836Z,4.50
2022-11-29T17:49:51.435Z,4.50
2022-11-29T17:52:18.053Z,4.50
2022-11-29T17:54:44.758Z,4.50
2022-11-29T17:57:11.490Z,4.50
2022-11-29T17:59:40.146Z,4.50
2022-11-29T18:02:07.351Z,4.40
2022-11-29T18:04:34.043Z,4.40
2022-11-29T18:07:01.503Z,4.40
2022-11-29T18:09:28.093Z,4.40
2022-11-29T18:11:54.719Z,4.40
2022-11-29T18:14:24.108Z,4.30
2022-11-29T18:16:51.346Z,4.30
2022-11-29T18:19:20.533Z,4.40
2022-11-29T18:21:47.925Z,4.40
2022-11-29T18:24:14.811Z,4.40
2022-11-29T18:26:42.137Z,4.40
2022-11-29T18:29:09.271Z,4.30
2022-11-29T18:31:38.840Z,4.40
2022-11-29T18:34:09.411Z,4.40
2022-11-29T18:36:38.770Z,4.40
2022-11-29T18:39:08.632Z,4.40
2022-11-29T18:41:36.310Z,4.40
2022-11-29T18:44:08.885Z,4.40
2022-11-29T18:46:37.241Z,4.40
2022-11-29T18:49:05.980Z,4.40
2022-11-29T18:51:37.113Z,4.40
2022-11-29T18:54:04.452Z,4.40
2022-11-29T18:56:34.300Z,4.40
2022-11-29T18:59:03.973Z,4.40
2022-11-29T19:01:34.244Z,4.40
2022-11-29T19:04:01.808Z,4.40
2022-11-29T19:06:39.248Z,4.40
2022-11-29T19:09:11.071Z,4.40
2022-11-29T19:11:37.846Z,4.50
2022-11-29T19:14:10.895Z,4.50
2022-11-29T19:16:38.911Z,4.50
2022-11-29T19:19:05.707Z,4.50
2022-11-29T19:21:32.875Z,4.50
2022-11-29T19:24:01.747Z,4.50
2022-11-29T19:26:30.487Z,4.50
2022-11-29T19:28:59.233Z,4.50
2022-11-29T19:31:27.170Z,4.50
2022-11-29T19:33:55.225Z,4.50
2022-11-29T19:36:27.334Z,4.40
2022-11-29T19:38:54.750Z,4.50
2022-11-29T19:41:32.643Z,4.50
2022-11-29T19:44:01.995Z,4.50
2022-11-29T19:46:31.702Z,4.50
2022-11-29T19:48:59.732Z,4.50
2022-11-29T19:51:28.650Z,4.50
2022-11-29T19:53:57.953Z,4.50
2022-11-29T19:56:25.037Z,4.50
2022-11-29T19:58:52.045Z,4.50
2022-11-29T20:01:24.901Z,4.50
2022-11-29T20:03:52.545Z,4.50
2022-11-29T20:06:19.430Z,4.50
2022-11-29T20:08:46.597Z,4.40
2022-11-29T20:11:15.864Z,4.40
2022-11-29T20:13:45.423Z,4.40
2022-11-29T20:16:18.342Z,4.40
2022-11-29T20:18:50.956Z,4.40
2022-11-29T20:21:21.462Z,4.40
2022-11-29T20:23:48.577Z,4.40
2022-11-29T20:26:20.073Z,4.30
2022-11-29T20:28:47.530Z,4.40
2022-11-29T20:31:17.981Z,4.30
2022-11-29T20:33:46.472Z,4.30
2022-11-29T20:36:47.568Z,4.30
2022-11-29T20:39:28.513Z,4.30
2022-11-29T20:42:25.258Z,4.20
2022-11-29T20:45:06.939Z,4.20
2022-11-29T20:47:56.515Z,4.20
2022-11-29T20:50:26.264Z,4.30
2022-11-29T20:53:09.689Z,4.30
2022-11-29T20:55:43.695Z,4.30
2022-11-29T20:58:13.082Z,4.20
2022-11-29T21:00:39.906Z,4.20
2022-11-29T21:03:06.618Z,4.20
2022-11-29T21:05:33.427Z,4.20
2022-11-29T21:08:00.091Z,4.30
2022-11-29T21:10:26.761Z,4.30
2022-11-29T21:12:53.695Z,4.30
2022-11-29T21:15:20.741Z,4.30
2022-11-29T21:17:47.628Z,4.20
2022-11-29T21:20:22.989Z,4.20
2022-11-29T21:22:52.880Z,4.20
2022-11-29T21:25:25.831Z,4.20
2022-11-29T21:27:54.841Z,4.10
2022-11-29T21:30:23.539Z,4.10
2022-11-29T21:32:51.031Z,4.10
2022-11-29T21:35:18.361Z,4.00
2022-11-29T21:37:46.009Z,4.00
2022-11-29T21:40:14.258Z,4.10
2022-11-29T21:42:41.051Z,4.20
2022-11-29T21:45:14.579Z,4.30
2022-11-29T21:47:43.048Z,4.20
2022-11-29T21:50:10.533Z,4.10
2022-11-29T21:52:37.166Z,4.10
2022-11-29T21:55:04.869Z,4.10
2022-11-29T21:57:31.462Z,4.00
2022-11-29T21:59:58.057Z,3.90
2022-11-29T22:02:24.739Z,3.80
2022-11-29T22:04:51.368Z,3.70
2022-11-29T22:07:18.005Z,3.70
2022-11-29T22:09:44.719Z,3.70
2022-11-29T22:12:32.310Z,3.60
2022-11-29T22:14:58.281Z,3.60
2022-11-29T22:17:24.882Z,3.60
2022-11-29T22:19:51.477Z,3.60
2022-11-29T22:22:18.164Z,3.60
2022-11-29T22:24:45.139Z,3.50
2022-11-29T22:27:12.070Z,3.50
2022-11-29T22:29:38.811Z,3.40
2022-11-29T22:32:06.146Z,3.30
2022-11-29T22:34:32.822Z,3.30
2022-11-29T22:36:59.408Z,3.20
2022-11-29T22:39:26.146Z,3.20
2022-11-29T22:41:54.953Z,3.20
2022-11-29T22:44:25.345Z,3.20
2022-11-29T22:46:52.527Z,3.20
2022-11-29T22:49:19.364Z,3.10
2022-11-29T22:51:46.087Z,3.00
2022-11-29T22:54:15.376Z,3.00
2022-11-29T22:56:43.124Z,3.00
2022-11-29T22:59:09.876Z,3.00
2022-11-29T23:01:38.793Z,2.90
2022-11-29T23:04:07.970Z,2.90
2022-11-29T23:06:35.543Z,2.90
2022-11-29T23:09:10.444Z,2.90
2022-11-29T23:11:37.860Z,2.90
2022-11-29T23:14:04.596Z,3.00
2022-11-29T23:16:32.692Z,2.90
2022-11-29T23:19:00.610Z,2.90
2022-11-29T23:21:30.566Z,2.90
2022-11-29T23:23:59.916Z,2.90
2022-11-29T23:26:40.445Z,2.90
2022-11-29T23:29:10.104Z,2.90
2022-11-29T23:31:37.003Z,2.90
2022-11-29T23:34:04.179Z,2.90
2022-11-29T23:36:31.167Z,2.90
2022-11-29T23:38:57.839Z,2.90
2022-11-29T23:41:24.674Z,2.80
2022-11-29T23:43:51.241Z,2.90
2022-11-29T23:46:21.129Z,2.80
2022-11-29T23:48:48.285Z,2.80
2022-11-29T23:51:15.417Z,2.80
2022-11-29T23:53:42.597Z,2.80
2022-11-29T23:56:14.960Z,2.80
2022-11-29T23:58:42.148Z,2.80
